sensor_id;sensor_type;location;lat;lon;timestamp;temperature;humidity
5304;DHT22;2674;49.722;10.892;2023-02-28T00:00:20;-2.30;20.30
5304;DHT22;2674;49.722;10.892;2023-02-28T00:02:46;-2.40;22.20
5304;DHT22;2674;49.722;10.892;2023-02-28T00:05:14;-2.40;20.50
5304;DHT22;2674;49.722;10.892;2023-02-28T00:07:40;-2.40;23.10
5304;DHT22;2674;49.722;10.892;2023-02-28T00:10:12;-2.30;21.70
5304;DHT22;2674;49.722;10.892;2023-02-28T00:12:38;-2.40;23.20
5304;DHT22;2674;49.722;10.892;2023-02-28T00:15:09;-2.40;23.40
5304;DHT22;2674;49.722;10.892;2023-02-28T00:17:35;-2.40;22.30
5304;DHT22;2674;49.722;10.892;2023-02-28T00:20:02;-2.40;23.40
5304;DHT22;2674;49.722;10.892;2023-02-28T00:22:30;-2.40;22.50
5304;DHT22;2674;49.722;10.892;2023-02-28T00:24:56;-2.50;25.30
5304;DHT22;2674;49.722;10.892;2023-02-28T00:27:22;-2.50;26.60
5304;DHT22;2674;49.722;10.892;2023-02-28T00:29:48;-2.50;26.30
5304;DHT22;2674;49.722;10.892;2023-02-28T00:32:13;-2.50;27.80
5304;DHT22;2674;49.722;10.892;2023-02-28T00:34:39;-2.60;26.50
5304;DHT22;2674;49.722;10.892;2023-02-28T00:37:07;-2.60;28.10
5304;DHT22;2674;49.722;10.892;2023-02-28T00:39:35;-2.60;29.10
5304;DHT22;2674;49.722;10.892;2023-02-28T00:42:01;-2.60;28.30
5304;DHT22;2674;49.722;10.892;2023-02-28T00:44:28;-2.60;29.80
5304;DHT22;2674;49.722;10.892;2023-02-28T00:46:53;-2.60;30.30
5304;DHT22;2674;49.722;10.892;2023-02-28T00:49:20;-2.60;31.00
5304;DHT22;2674;49.722;10.892;2023-02-28T00:51:46;-2.60;32.00
5304;DHT22;2674;49.722;10.892;2023-02-28T00:54:12;-2.70;32.30
5304;DHT22;2674;49.722;10.892;2023-02-28T00:56:38;-2.70;33.40
5304;DHT22;2674;49.722;10.892;2023-02-28T00:59:04;-2.70;34.00
5304;DHT22;2674;49.722;10.892;2023-02-28T01:01:30;-2.80;37.50
5304;DHT22;2674;49.722;10.892;2023-02-28T01:03:55;-2.80;37.10
5304;DHT22;2674;49.722;10.892;2023-02-28T01:06:21;-2.80;37.90
5304;DHT22;2674;49.722;10.892;2023-02-28T01:08:47;-2.80;36.90
5304;DHT22;2674;49.722;10.892;2023-02-28T01:11:15;-2.80;38.00
5304;DHT22;2674;49.722;10.892;2023-02-28T01:13:42;-2.80;37.80
5304;DHT22;2674;49.722;10.892;2023-02-28T01:16:08;-2.70;35.80
5304;DHT22;2674;49.722;10.892;2023-02-28T01:18:34;-2.80;36.20
5304;DHT22;2674;49.722;10.892;2023-02-28T01:21:07;-2.70;35.30
5304;DHT22;2674;49.722;10.892;2023-02-28T01:23:33;-2.70;36.10
5304;DHT22;2674;49.722;10.892;2023-02-28T01:26:11;-2.70;33.30
5304;DHT22;2674;49.722;10.892;2023-02-28T01:28:37;-2.70;35.10
5304;DHT22;2674;49.722;10.892;2023-02-28T01:31:04;-2.80;36.10
5304;DHT22;2674;49.722;10.892;2023-02-28T01:33:30;-2.80;38.30
5304;DHT22;2674;49.722;10.892;2023-02-28T01:36:08;-2.80;40.00
5304;DHT22;2674;49.722;10.892;2023-02-28T01:38:35;-2.90;40.20
5304;DHT22;2674;49.722;10.892;2023-02-28T01:41:01;-2.90;40.80
5304;DHT22;2674;49.722;10.892;2023-02-28T01:43:30;-2.90;39.60
5304;DHT22;2674;49.722;10.892;2023-02-28T01:45:58;-2.90;38.50
5304;DHT22;2674;49.722;10.892;2023-02-28T01:48:32;-2.90;42.00
5304;DHT22;2674;49.722;10.892;2023-02-28T01:51:16;-2.90;41.00
5304;DHT22;2674;49.722;10.892;2023-02-28T01:53:47;-2.90;39.90
5304;DHT22;2674;49.722;10.892;2023-02-28T01:56:17;-2.90;43.00
5304;DHT22;2674;49.722;10.892;2023-02-28T01:58:50;-2.90;43.30
5304;DHT22;2674;49.722;10.892;2023-02-28T02:01:16;-3.00;44.00
5304;DHT22;2674;49.722;10.892;2023-02-28T02:04:07;-2.90;44.90
5304;DHT22;2674;49.722;10.892;2023-02-28T02:06:40;-3.00;44.50
5304;DHT22;2674;49.722;10.892;2023-02-28T02:09:08;-3.00;44.60
5304;DHT22;2674;49.722;10.892;2023-02-28T02:11:34;-2.90;44.90
5304;DHT22;2674;49.722;10.892;2023-02-28T02:14:10;-3.00;44.70
5304;DHT22;2674;49.722;10.892;2023-02-28T02:16:52;-2.90;43.80
5304;DHT22;2674;49.722;10.892;2023-02-28T02:20:01;-3.00;44.30
5304;DHT22;2674;49.722;10.892;2023-02-28T02:30:57;-3.00;41.50
5304;DHT22;2674;49.722;10.892;2023-02-28T02:36:28;-3.00;46.80
5304;DHT22;2674;49.722;10.892;2023-02-28T02:41:54;-3.00;43.30
5304;DHT22;2674;49.722;10.892;2023-02-28T02:44:34;-3.00;45.40
5304;DHT22;2674;49.722;10.892;2023-02-28T02:47:10;-3.00;47.10
5304;DHT22;2674;49.722;10.892;2023-02-28T02:49:38;-3.10;46.10
5304;DHT22;2674;49.722;10.892;2023-02-28T02:52:08;-3.00;46.90
5304;DHT22;2674;49.722;10.892;2023-02-28T02:54:42;-3.00;44.70
5304;DHT22;2674;49.722;10.892;2023-02-28T02:57:13;-3.00;44.50
5304;DHT22;2674;49.722;10.892;2023-02-28T02:59:42;-3.10;45.90
5304;DHT22;2674;49.722;10.892;2023-02-28T03:02:12;-3.20;48.90
5304;DHT22;2674;49.722;10.892;2023-02-28T03:04:53;-3.00;49.50
5304;DHT22;2674;49.722;10.892;2023-02-28T03:07:26;-3.00;47.90
5304;DHT22;2674;49.722;10.892;2023-02-28T03:09:54;-3.10;49.00
5304;DHT22;2674;49.722;10.892;2023-02-28T03:12:20;-3.10;48.00
5304;DHT22;2674;49.722;10.892;2023-02-28T03:17:48;-3.10;47.70
5304;DHT22;2674;49.722;10.892;2023-02-28T03:23:19;-3.00;47.60
5304;DHT22;2674;49.722;10.892;2023-02-28T03:31:22;-3.00;49.60
5304;DHT22;2674;49.722;10.892;2023-02-28T03:36:32;-3.00;50.60
5304;DHT22;2674;49.722;10.892;2023-02-28T03:39:06;-3.00;49.20
5304;DHT22;2674;49.722;10.892;2023-02-28T03:41:44;-3.00;49.70
5304;DHT22;2674;49.722;10.892;2023-02-28T03:44:22;-3.00;48.90
5304;DHT22;2674;49.722;10.892;2023-02-28T03:47:10;-3.00;49.50
5304;DHT22;2674;49.722;10.892;2023-02-28T03:49:46;-3.00;49.20
5304;DHT22;2674;49.722;10.892;2023-02-28T03:52:15;-3.10;49.40
5304;DHT22;2674;49.722;10.892;2023-02-28T03:54:49;-3.10;52.10
5304;DHT22;2674;49.722;10.892;2023-02-28T04:00:30;-3.00;50.90
5304;DHT22;2674;49.722;10.892;2023-02-28T04:02:58;-3.00;51.00
5304;DHT22;2674;49.722;10.892;2023-02-28T04:05:24;-3.00;49.70
5304;DHT22;2674;49.722;10.892;2023-02-28T04:07:51;-3.00;49.50
5304;DHT22;2674;49.722;10.892;2023-02-28T04:10:17;-3.00;49.50
5304;DHT22;2674;49.722;10.892;2023-02-28T04:12:43;-3.00;46.90
5304;DHT22;2674;49.722;10.892;2023-02-28T04:15:09;-2.90;47.50
5304;DHT22;2674;49.722;10.892;2023-02-28T04:17:36;-2.90;46.50
5304;DHT22;2674;49.722;10.892;2023-02-28T04:20:02;-2.90;45.30
5304;DHT22;2674;49.722;10.892;2023-02-28T04:22:28;-2.90;42.90
5304;DHT22;2674;49.722;10.892;2023-02-28T04:24:54;-2.90;43.80
5304;DHT22;2674;49.722;10.892;2023-02-28T04:27:21;-2.90;45.90
5304;DHT22;2674;49.722;10.892;2023-02-28T04:29:47;-2.90;44.40
5304;DHT22;2674;49.722;10.892;2023-02-28T04:32:13;-2.90;45.40
5304;DHT22;2674;49.722;10.892;2023-02-28T04:34:39;-2.90;44.90
5304;DHT22;2674;49.722;10.892;2023-02-28T04:37:05;-2.90;45.90
5304;DHT22;2674;49.722;10.892;2023-02-28T04:39:35;-3.00;48.20
5304;DHT22;2674;49.722;10.892;2023-02-28T04:42:01;-3.00;50.50
5304;DHT22;2674;49.722;10.892;2023-02-28T04:44:27;-3.00;51.30
5304;DHT22;2674;49.722;10.892;2023-02-28T04:46:53;-3.00;50.50
5304;DHT22;2674;49.722;10.892;2023-02-28T04:49:19;-3.00;51.60
5304;DHT22;2674;49.722;10.892;2023-02-28T04:51:45;-3.10;51.40
5304;DHT22;2674;49.722;10.892;2023-02-28T04:54:10;-3.10;50.40
5304;DHT22;2674;49.722;10.892;2023-02-28T04:56:36;-3.00;50.70
5304;DHT22;2674;49.722;10.892;2023-02-28T04:59:02;-3.00;50.20
5304;DHT22;2674;49.722;10.892;2023-02-28T05:01:33;-3.10;50.10
5304;DHT22;2674;49.722;10.892;2023-02-28T05:04:02;-3.10;52.10
5304;DHT22;2674;49.722;10.892;2023-02-28T05:06:30;-3.20;54.60
5304;DHT22;2674;49.722;10.892;2023-02-28T05:08:56;-3.10;53.10
5304;DHT22;2674;49.722;10.892;2023-02-28T05:11:28;-3.10;51.20
5304;DHT22;2674;49.722;10.892;2023-02-28T05:13:55;-3.10;53.60
5304;DHT22;2674;49.722;10.892;2023-02-28T05:16:21;-3.20;54.40
5304;DHT22;2674;49.722;10.892;2023-02-28T05:18:47;-3.20;56.30
5304;DHT22;2674;49.722;10.892;2023-02-28T05:21:29;-3.00;58.00
5304;DHT22;2674;49.722;10.892;2023-02-28T05:24:00;-3.20;56.50
5304;DHT22;2674;49.722;10.892;2023-02-28T05:26:27;-3.20;56.00
5304;DHT22;2674;49.722;10.892;2023-02-28T05:28:54;-3.20;57.50
5304;DHT22;2674;49.722;10.892;2023-02-28T05:31:20;-3.20;58.20
5304;DHT22;2674;49.722;10.892;2023-02-28T05:33:46;-3.20;54.20
5304;DHT22;2674;49.722;10.892;2023-02-28T05:36:12;-3.20;55.30
5304;DHT22;2674;49.722;10.892;2023-02-28T05:38:38;-3.20;58.80
5304;DHT22;2674;49.722;10.892;2023-02-28T05:41:08;-3.20;57.00
5304;DHT22;2674;49.722;10.892;2023-02-28T05:43:35;-3.20;58.30
5304;DHT22;2674;49.722;10.892;2023-02-28T05:46:03;-3.20;58.50
5304;DHT22;2674;49.722;10.892;2023-02-28T05:48:30;-3.20;57.60
5304;DHT22;2674;49.722;10.892;2023-02-28T05:50:57;-3.20;58.50
5304;DHT22;2674;49.722;10.892;2023-02-28T05:53:23;-3.20;58.50
5304;DHT22;2674;49.722;10.892;2023-02-28T05:55:49;-3.20;59.50
5304;DHT22;2674;49.722;10.892;2023-02-28T05:58:14;-3.10;56.70
5304;DHT22;2674;49.722;10.892;2023-02-28T06:00:40;-3.20;57.60
5304;DHT22;2674;49.722;10.892;2023-02-28T06:03:06;-3.20;59.00
5304;DHT22;2674;49.722;10.892;2023-02-28T06:05:32;-3.20;56.90
5304;DHT22;2674;49.722;10.892;2023-02-28T06:07:58;-3.20;61.40
5304;DHT22;2674;49.722;10.892;2023-02-28T06:10:24;-3.20;59.60
5304;DHT22;2674;49.722;10.892;2023-02-28T06:12:50;-3.00;57.30
5304;DHT22;2674;49.722;10.892;2023-02-28T06:15:16;-3.00;55.40
5304;DHT22;2674;49.722;10.892;2023-02-28T06:17:43;-3.00;56.10
5304;DHT22;2674;49.722;10.892;2023-02-28T06:20:10;-2.90;67.40
5304;DHT22;2674;49.722;10.892;2023-02-28T06:22:39;-2.80;49.80
5304;DHT22;2674;49.722;10.892;2023-02-28T06:25:05;-2.70;48.20
5304;DHT22;2674;49.722;10.892;2023-02-28T06:27:33;-2.70;45.60
5304;DHT22;2674;49.722;10.892;2023-02-28T06:29:59;-2.60;41.40
5304;DHT22;2674;49.722;10.892;2023-02-28T06:32:24;-2.60;41.60
5304;DHT22;2674;49.722;10.892;2023-02-28T06:34:50;-2.60;40.20
5304;DHT22;2674;49.722;10.892;2023-02-28T06:37:17;-2.60;40.80
5304;DHT22;2674;49.722;10.892;2023-02-28T06:39:43;-2.60;42.10
5304;DHT22;2674;49.722;10.892;2023-02-28T06:42:09;-2.60;42.30
5304;DHT22;2674;49.722;10.892;2023-02-28T06:44:35;-2.50;37.40
5304;DHT22;2674;49.722;10.892;2023-02-28T06:47:02;-2.50;36.90
5304;DHT22;2674;49.722;10.892;2023-02-28T06:49:33;-2.40;37.60
5304;DHT22;2674;49.722;10.892;2023-02-28T06:51:59;-2.40;33.80
5304;DHT22;2674;49.722;10.892;2023-02-28T06:54:25;-2.30;32.70
5304;DHT22;2674;49.722;10.892;2023-02-28T06:56:51;-2.30;30.90
5304;DHT22;2674;49.722;10.892;2023-02-28T06:59:17;-2.30;32.10
5304;DHT22;2674;49.722;10.892;2023-02-28T07:01:43;-2.20;30.30
5304;DHT22;2674;49.722;10.892;2023-02-28T07:04:09;-2.20;27.80
5304;DHT22;2674;49.722;10.892;2023-02-28T07:06:35;-2.00;27.50
5304;DHT22;2674;49.722;10.892;2023-02-28T07:09:00;-2.00;25.30
5304;DHT22;2674;49.722;10.892;2023-02-28T07:11:27;-2.00;24.10
5304;DHT22;2674;49.722;10.892;2023-02-28T07:13:54;-1.90;22.60
5304;DHT22;2674;49.722;10.892;2023-02-28T07:16:21;-1.90;22.00
5304;DHT22;2674;49.722;10.892;2023-02-28T07:18:47;-1.80;20.90
5304;DHT22;2674;49.722;10.892;2023-02-28T07:21:13;-1.80;22.10
5304;DHT22;2674;49.722;10.892;2023-02-28T07:23:39;-1.70;21.90
5304;DHT22;2674;49.722;10.892;2023-02-28T07:26:06;-1.60;18.80
5304;DHT22;2674;49.722;10.892;2023-02-28T07:28:32;-1.60;18.50
5304;DHT22;2674;49.722;10.892;2023-02-28T07:31:06;-1.50;17.70
5304;DHT22;2674;49.722;10.892;2023-02-28T07:33:33;-1.50;15.20
5304;DHT22;2674;49.722;10.892;2023-02-28T07:36:11;-1.40;11.70
5304;DHT22;2674;49.722;10.892;2023-02-28T07:38:45;-1.30;8.70
5304;DHT22;2674;49.722;10.892;2023-02-28T07:41:14;-1.20;4.60
5304;DHT22;2674;49.722;10.892;2023-02-28T07:43:40;-1.10;1.00
5304;DHT22;2674;49.722;10.892;2023-02-28T07:46:09;-1.00;1.00
5304;DHT22;2674;49.722;10.892;2023-02-28T07:48:35;-0.90;1.00
5304;DHT22;2674;49.722;10.892;2023-02-28T07:51:01;-0.90;1.00
5304;DHT22;2674;49.722;10.892;2023-02-28T07:53:27;-0.90;1.00
5304;DHT22;2674;49.722;10.892;2023-02-28T07:55:57;-0.80;15.60
5304;DHT22;2674;49.722;10.892;2023-02-28T07:58:24;-0.70;19.30
5304;DHT22;2674;49.722;10.892;2023-02-28T08:00:50;-0.50;10.60
5304;DHT22;2674;49.722;10.892;2023-02-28T08:03:21;-0.40;1.00
5304;DHT22;2674;49.722;10.892;2023-02-28T08:05:47;-0.40;1.00
5304;DHT22;2674;49.722;10.892;2023-02-28T08:08:14;-0.40;1.00
5304;DHT22;2674;49.722;10.892;2023-02-28T08:10:40;-0.40;1.00
5304;DHT22;2674;49.722;10.892;2023-02-28T08:13:07;-0.30;1.00
5304;DHT22;2674;49.722;10.892;2023-02-28T08:15:33;-0.30;1.00
5304;DHT22;2674;49.722;10.892;2023-02-28T08:17:58;-0.20;1.00
5304;DHT22;2674;49.722;10.892;2023-02-28T08:20:25;-0.20;1.00
5304;DHT22;2674;49.722;10.892;2023-02-28T08:22:53;-0.20;1.00
5304;DHT22;2674;49.722;10.892;2023-02-28T08:25:19;-0.10;1.00
5304;DHT22;2674;49.722;10.892;2023-02-28T08:27:45;0.00;1.00
5304;DHT22;2674;49.722;10.892;2023-02-28T08:30:12;0.10;1.00
5304;DHT22;2674;49.722;10.892;2023-02-28T08:32:38;0.10;1.00
5304;DHT22;2674;49.722;10.892;2023-02-28T08:35:08;0.20;1.00
5304;DHT22;2674;49.722;10.892;2023-02-28T08:37:35;0.20;1.00
5304;DHT22;2674;49.722;10.892;2023-02-28T08:40:01;0.30;1.00
5304;DHT22;2674;49.722;10.892;2023-02-28T08:42:27;0.30;1.00
5304;DHT22;2674;49.722;10.892;2023-02-28T08:44:52;0.40;1.00
5304;DHT22;2674;49.722;10.892;2023-02-28T08:47:18;0.40;1.00
5304;DHT22;2674;49.722;10.892;2023-02-28T08:49:44;0.50;1.00
5304;DHT22;2674;49.722;10.892;2023-02-28T08:52:10;0.60;1.00
5304;DHT22;2674;49.722;10.892;2023-02-28T08:54:36;0.70;1.00
5304;DHT22;2674;49.722;10.892;2023-02-28T08:57:02;0.70;1.00
5304;DHT22;2674;49.722;10.892;2023-02-28T08:59:29;0.70;1.00
5304;DHT22;2674;49.722;10.892;2023-02-28T09:01:55;0.70;1.00
5304;DHT22;2674;49.722;10.892;2023-02-28T09:04:21;0.80;1.00
5304;DHT22;2674;49.722;10.892;2023-02-28T09:06:47;0.80;1.00
5304;DHT22;2674;49.722;10.892;2023-02-28T09:09:15;0.90;1.00
5304;DHT22;2674;49.722;10.892;2023-02-28T09:11:41;0.90;1.00
5304;DHT22;2674;49.722;10.892;2023-02-28T09:14:07;1.00;1.00
5304;DHT22;2674;49.722;10.892;2023-02-28T09:16:33;1.00;1.00
5304;DHT22;2674;49.722;10.892;2023-02-28T09:18:59;1.10;1.00
5304;DHT22;2674;49.722;10.892;2023-02-28T09:21:25;1.10;1.00
5304;DHT22;2674;49.722;10.892;2023-02-28T09:23:51;1.20;1.00
5304;DHT22;2674;49.722;10.892;2023-02-28T09:26:27;1.30;1.00
5304;DHT22;2674;49.722;10.892;2023-02-28T09:28:54;1.30;1.00
5304;DHT22;2674;49.722;10.892;2023-02-28T09:31:25;1.30;1.00
5304;DHT22;2674;49.722;10.892;2023-02-28T09:33:53;1.40;1.00
5304;DHT22;2674;49.722;10.892;2023-02-28T09:36:20;1.50;1.00
5304;DHT22;2674;49.722;10.892;2023-02-28T09:38:46;1.60;1.00
5304;DHT22;2674;49.722;10.892;2023-02-28T09:41:22;1.60;1.00
5304;DHT22;2674;49.722;10.892;2023-02-28T09:43:59;1.70;1.00
5304;DHT22;2674;49.722;10.892;2023-02-28T09:46:44;2.00;1.00
5304;DHT22;2674;49.722;10.892;2023-02-28T09:49:17;2.10;1.00
5304;DHT22;2674;49.722;10.892;2023-02-28T09:54:22;2.20;1.00
5304;DHT22;2674;49.722;10.892;2023-02-28T10:12:48;2.20;1.00
5304;DHT22;2674;49.722;10.892;2023-02-28T10:15:17;2.20;1.00
5304;DHT22;2674;49.722;10.892;2023-02-28T10:17:45;2.30;1.00
5304;DHT22;2674;49.722;10.892;2023-02-28T10:20:17;2.40;1.00
5304;DHT22;2674;49.722;10.892;2023-02-28T10:25:28;2.40;1.00
5304;DHT22;2674;49.722;10.892;2023-02-28T10:28:13;2.60;1.00
5304;DHT22;2674;49.722;10.892;2023-02-28T10:30:59;2.70;1.00
5304;DHT22;2674;49.722;10.892;2023-02-28T10:33:32;3.00;1.00
5304;DHT22;2674;49.722;10.892;2023-02-28T10:36:00;3.20;1.00
5304;DHT22;2674;49.722;10.892;2023-02-28T10:38:35;3.00;1.00
5304;DHT22;2674;49.722;10.892;2023-02-28T10:41:10;2.90;1.00
5304;DHT22;2674;49.722;10.892;2023-02-28T10:43:38;2.70;1.00
5304;DHT22;2674;49.722;10.892;2023-02-28T10:48:44;2.50;1.00
5304;DHT22;2674;49.722;10.892;2023-02-28T10:51:16;2.50;1.00
5304;DHT22;2674;49.722;10.892;2023-02-28T10:59:01;2.80;1.00
5304;DHT22;2674;49.722;10.892;2023-02-28T11:04:03;3.00;1.00
5304;DHT22;2674;49.722;10.892;2023-02-28T11:06:31;2.90;1.00
5304;DHT22;2674;49.722;10.892;2023-02-28T11:09:01;2.90;1.00
5304;DHT22;2674;49.722;10.892;2023-02-28T11:11:30;3.00;1.00
5304;DHT22;2674;49.722;10.892;2023-02-28T11:14:06;3.00;1.00
5304;DHT22;2674;49.722;10.892;2023-02-28T11:16:40;3.00;1.00
5304;DHT22;2674;49.722;10.892;2023-02-28T11:19:35;3.10;1.00
5304;DHT22;2674;49.722;10.892;2023-02-28T11:22:04;3.20;1.00
5304;DHT22;2674;49.722;10.892;2023-02-28T11:24:35;3.30;1.00
5304;DHT22;2674;49.722;10.892;2023-02-28T11:27:02;3.40;1.00
5304;DHT22;2674;49.722;10.892;2023-02-28T11:29:32;3.50;1.00
5304;DHT22;2674;49.722;10.892;2023-02-28T11:32:18;3.50;1.00
5304;DHT22;2674;49.722;10.892;2023-02-28T11:34:46;3.70;1.00
5304;DHT22;2674;49.722;10.892;2023-02-28T11:37:26;3.80;1.00
5304;DHT22;2674;49.722;10.892;2023-02-28T11:39:53;3.90;1.00
5304;DHT22;2674;49.722;10.892;2023-02-28T11:51:03;4.20;1.00
5304;DHT22;2674;49.722;10.892;2023-02-28T11:56:36;4.30;1.00
5304;DHT22;2674;49.722;10.892;2023-02-28T12:07:18;4.10;1.00
5304;DHT22;2674;49.722;10.892;2023-02-28T12:15:39;4.10;1.00
5304;DHT22;2674;49.722;10.892;2023-02-28T12:18:31;4.20;1.00
5304;DHT22;2674;49.722;10.892;2023-02-28T12:21:37;4.10;1.00
5304;DHT22;2674;49.722;10.892;2023-02-28T12:24:28;3.90;1.00
5304;DHT22;2674;49.722;10.892;2023-02-28T12:26:56;3.90;1.00
5304;DHT22;2674;49.722;10.892;2023-02-28T12:29:29;4.00;1.00
5304;DHT22;2674;49.722;10.892;2023-02-28T12:32:04;3.90;1.00
5304;DHT22;2674;49.722;10.892;2023-02-28T12:34:41;4.00;1.00
5304;DHT22;2674;49.722;10.892;2023-02-28T12:37:13;4.20;1.00
5304;DHT22;2674;49.722;10.892;2023-02-28T12:39:44;4.40;1.00
5304;DHT22;2674;49.722;10.892;2023-02-28T12:42:16;4.60;1.00
5304;DHT22;2674;49.722;10.892;2023-02-28T12:47:23;4.70;1.00
5304;DHT22;2674;49.722;10.892;2023-02-28T12:49:51;4.80;1.00
5304;DHT22;2674;49.722;10.892;2023-02-28T12:52:35;4.80;1.00
5304;DHT22;2674;49.722;10.892;2023-02-28T12:55:14;4.90;1.00
5304;DHT22;2674;49.722;10.892;2023-02-28T13:00:36;4.70;1.00
5304;DHT22;2674;49.722;10.892;2023-02-28T13:05:56;4.90;1.00
5304;DHT22;2674;49.722;10.892;2023-02-28T13:11:33;5.20;1.00
5304;DHT22;2674;49.722;10.892;2023-02-28T13:14:05;5.30;1.00
5304;DHT22;2674;49.722;10.892;2023-02-28T13:19:25;5.20;1.00
5304;DHT22;2674;49.722;10.892;2023-02-28T13:21:52;5.00;1.00
5304;DHT22;2674;49.722;10.892;2023-02-28T13:24:49;4.80;1.00
5304;DHT22;2674;49.722;10.892;2023-02-28T13:29:42;4.80;1.00
5304;DHT22;2674;49.722;10.892;2023-02-28T13:39:57;4.90;1.00
5304;DHT22;2674;49.722;10.892;2023-02-28T13:47:33;5.30;1.00
5304;DHT22;2674;49.722;10.892;2023-02-28T14:06:32;5.30;1.00
5304;DHT22;2674;49.722;10.892;2023-02-28T14:09:32;5.30;1.00
5304;DHT22;2674;49.722;10.892;2023-02-28T14:15:36;5.40;1.00
5304;DHT22;2674;49.722;10.892;2023-02-28T14:18:14;5.50;1.00
5304;DHT22;2674;49.722;10.892;2023-02-28T14:20:42;5.30;1.00
5304;DHT22;2674;49.722;10.892;2023-02-28T14:26:18;5.30;1.00
5304;DHT22;2674;49.722;10.892;2023-02-28T14:37:00;5.20;1.00
5304;DHT22;2674;49.722;10.892;2023-02-28T14:39:33;5.20;1.00
5304;DHT22;2674;49.722;10.892;2023-02-28T14:42:03;5.30;1.00
5304;DHT22;2674;49.722;10.892;2023-02-28T14:44:30;5.30;1.00
5304;DHT22;2674;49.722;10.892;2023-02-28T14:46:59;5.00;1.00
5304;DHT22;2674;49.722;10.892;2023-02-28T14:49:45;4.90;1.00
5304;DHT22;2674;49.722;10.892;2023-02-28T14:52:19;4.80;1.00
5304;DHT22;2674;49.722;10.892;2023-02-28T14:54:46;4.80;1.00
5304;DHT22;2674;49.722;10.892;2023-02-28T14:57:32;4.70;1.00
5304;DHT22;2674;49.722;10.892;2023-02-28T15:02:29;4.90;1.00
5304;DHT22;2674;49.722;10.892;2023-02-28T15:05:00;4.80;1.00
5304;DHT22;2674;49.722;10.892;2023-02-28T15:07:31;4.80;1.00
5304;DHT22;2674;49.722;10.892;2023-02-28T15:10:13;4.70;1.00
5304;DHT22;2674;49.722;10.892;2023-02-28T15:12:45;4.70;1.00
5304;DHT22;2674;49.722;10.892;2023-02-28T15:15:22;4.70;1.00
5304;DHT22;2674;49.722;10.892;2023-02-28T15:17:56;4.80;1.00
5304;DHT22;2674;49.722;10.892;2023-02-28T15:20:25;4.70;1.00
5304;DHT22;2674;49.722;10.892;2023-02-28T15:22:57;4.70;1.00
5304;DHT22;2674;49.722;10.892;2023-02-28T15:25:26;4.60;1.00
5304;DHT22;2674;49.722;10.892;2023-02-28T15:27:56;4.60;1.00
5304;DHT22;2674;49.722;10.892;2023-02-28T15:30:36;4.60;1.00
5304;DHT22;2674;49.722;10.892;2023-02-28T15:33:22;4.60;1.00
5304;DHT22;2674;49.722;10.892;2023-02-28T15:36:29;4.60;1.00
5304;DHT22;2674;49.722;10.892;2023-02-28T15:39:00;4.60;1.00
5304;DHT22;2674;49.722;10.892;2023-02-28T15:41:36;4.50;1.00
5304;DHT22;2674;49.722;10.892;2023-02-28T15:44:24;4.50;1.00
5304;DHT22;2674;49.722;10.892;2023-02-28T15:47:04;4.40;1.00
5304;DHT22;2674;49.722;10.892;2023-02-28T15:49:40;4.40;1.00
5304;DHT22;2674;49.722;10.892;2023-02-28T15:52:15;4.40;1.00
5304;DHT22;2674;49.722;10.892;2023-02-28T15:54:43;4.40;1.00
5304;DHT22;2674;49.722;10.892;2023-02-28T15:57:29;4.30;1.00
5304;DHT22;2674;49.722;10.892;2023-02-28T15:59:57;4.30;1.00
5304;DHT22;2674;49.722;10.892;2023-02-28T16:02:33;4.30;1.00
5304;DHT22;2674;49.722;10.892;2023-02-28T16:05:00;4.30;1.00
5304;DHT22;2674;49.722;10.892;2023-02-28T16:07:27;4.20;1.00
5304;DHT22;2674;49.722;10.892;2023-02-28T16:09:52;4.20;1.00
5304;DHT22;2674;49.722;10.892;2023-02-28T16:12:20;4.10;1.00
5304;DHT22;2674;49.722;10.892;2023-02-28T16:14:52;4.10;1.00
5304;DHT22;2674;49.722;10.892;2023-02-28T16:17:24;4.00;1.00
5304;DHT22;2674;49.722;10.892;2023-02-28T16:19:50;4.00;1.00
5304;DHT22;2674;49.722;10.892;2023-02-28T16:22:16;3.90;1.00
5304;DHT22;2674;49.722;10.892;2023-02-28T16:24:42;3.80;1.00
5304;DHT22;2674;49.722;10.892;2023-02-28T16:29:43;3.60;1.00
5304;DHT22;2674;49.722;10.892;2023-02-28T16:32:13;3.60;1.00
5304;DHT22;2674;49.722;10.892;2023-02-28T16:34:39;3.50;1.00
5304;DHT22;2674;49.722;10.892;2023-02-28T16:37:12;3.40;1.00
5304;DHT22;2674;49.722;10.892;2023-02-28T16:39:38;3.40;1.00
5304;DHT22;2674;49.722;10.892;2023-02-28T16:42:04;3.30;1.00
5304;DHT22;2674;49.722;10.892;2023-02-28T16:44:34;3.30;1.00
5304;DHT22;2674;49.722;10.892;2023-02-28T16:47:00;3.20;1.00
5304;DHT22;2674;49.722;10.892;2023-02-28T16:49:27;3.20;1.00
5304;DHT22;2674;49.722;10.892;2023-02-28T16:51:53;3.10;1.00
5304;DHT22;2674;49.722;10.892;2023-02-28T16:54:19;3.00;1.00
5304;DHT22;2674;49.722;10.892;2023-02-28T16:56:47;3.00;1.00
5304;DHT22;2674;49.722;10.892;2023-02-28T16:59:15;2.80;1.00
5304;DHT22;2674;49.722;10.892;2023-02-28T17:01:43;2.80;1.00
5304;DHT22;2674;49.722;10.892;2023-02-28T17:04:10;2.80;1.00
5304;DHT22;2674;49.722;10.892;2023-02-28T17:06:38;2.70;1.00
5304;DHT22;2674;49.722;10.892;2023-02-28T17:09:05;2.70;1.00
5304;DHT22;2674;49.722;10.892;2023-02-28T17:11:34;2.70;1.00
5304;DHT22;2674;49.722;10.892;2023-02-28T17:13:59;2.60;1.00
5304;DHT22;2674;49.722;10.892;2023-02-28T17:16:28;2.60;1.00
5304;DHT22;2674;49.722;10.892;2023-02-28T17:18:58;2.50;1.00
5304;DHT22;2674;49.722;10.892;2023-02-28T17:21:24;2.50;1.00
5304;DHT22;2674;49.722;10.892;2023-02-28T17:23:50;2.40;1.00
5304;DHT22;2674;49.722;10.892;2023-02-28T17:26:18;2.40;1.00
5304;DHT22;2674;49.722;10.892;2023-02-28T17:28:48;2.30;1.00
5304;DHT22;2674;49.722;10.892;2023-02-28T17:31:14;2.30;1.00
5304;DHT22;2674;49.722;10.892;2023-02-28T17:33:40;2.30;1.00
5304;DHT22;2674;49.722;10.892;2023-02-28T17:36:12;2.20;1.00
5304;DHT22;2674;49.722;10.892;2023-02-28T17:38:39;2.20;1.00
5304;DHT22;2674;49.722;10.892;2023-02-28T17:41:05;2.10;1.00
5304;DHT22;2674;49.722;10.892;2023-02-28T17:43:30;2.10;1.00
5304;DHT22;2674;49.722;10.892;2023-02-28T17:45:56;2.00;1.00
5304;DHT22;2674;49.722;10.892;2023-02-28T17:48:24;2.00;1.00
5304;DHT22;2674;49.722;10.892;2023-02-28T17:50:49;1.90;1.00
5304;DHT22;2674;49.722;10.892;2023-02-28T17:53:15;1.80;1.00
5304;DHT22;2674;49.722;10.892;2023-02-28T17:55:47;1.70;1.00
5304;DHT22;2674;49.722;10.892;2023-02-28T17:58:13;1.60;1.00
5304;DHT22;2674;49.722;10.892;2023-02-28T18:00:39;1.50;1.00
5304;DHT22;2674;49.722;10.892;2023-02-28T18:03:04;1.30;1.00
5304;DHT22;2674;49.722;10.892;2023-02-28T18:05:31;1.20;1.00
5304;DHT22;2674;49.722;10.892;2023-02-28T18:07:57;1.20;1.00
5304;DHT22;2674;49.722;10.892;2023-02-28T18:10:23;1.10;1.00
5304;DHT22;2674;49.722;10.892;2023-02-28T18:12:51;1.00;1.00
5304;DHT22;2674;49.722;10.892;2023-02-28T18:15:18;0.90;1.00
5304;DHT22;2674;49.722;10.892;2023-02-28T18:17:48;0.80;1.00
5304;DHT22;2674;49.722;10.892;2023-02-28T18:20:14;0.70;1.00
5304;DHT22;2674;49.722;10.892;2023-02-28T18:22:41;0.60;1.00
5304;DHT22;2674;49.722;10.892;2023-02-28T18:25:08;0.60;1.00
5304;DHT22;2674;49.722;10.892;2023-02-28T18:27:35;0.50;1.00
5304;DHT22;2674;49.722;10.892;2023-02-28T18:30:02;0.40;1.00
5304;DHT22;2674;49.722;10.892;2023-02-28T18:32:29;0.30;1.00
5304;DHT22;2674;49.722;10.892;2023-02-28T18:34:56;0.30;1.00
5304;DHT22;2674;49.722;10.892;2023-02-28T18:37:22;0.20;1.00
5304;DHT22;2674;49.722;10.892;2023-02-28T18:39:48;0.20;1.00
5304;DHT22;2674;49.722;10.892;2023-02-28T18:42:13;0.10;1.00
5304;DHT22;2674;49.722;10.892;2023-02-28T18:44:39;0.10;1.00
5304;DHT22;2674;49.722;10.892;2023-02-28T18:47:06;0.10;1.00
5304;DHT22;2674;49.722;10.892;2023-02-28T18:49:32;0.10;1.00
5304;DHT22;2674;49.722;10.892;2023-02-28T18:52:02;0.20;1.00